Terminal Aerodrome Forecast
Issued by NWS

Home | Current Version | Previous Version | Text Only | Print | Product List | Glossary On
Versions: 1 2 3 4 5 6 7 8 9 10 11 12 13 14 15 16 17 18 19 20 21 22 23 24
000
FTUS45 KPSR 242328
TAFIWA
TAF
KIWA 242328Z 2500/2524 29005KT P6SM FEW250
     FM250500 11007KT P6SM FEW250
     FM252000 26005KT P6SM BKN250
      AMD LTD TO CLD VIS AND WIND 2503/2513=

USA.gov is the U.S. government's official web portal to all federal, state and local government web resources and services.